Time;durP1;ratioP1;P1;durP2;ratioP2;P2;SDS_P1;SDS_P2;PMS_P1;PMS_P2;Temp;Humidity;BMP_temperature;BMP_pressure;BME280_temperature;BME280_humidity;BME280_pressure;Samples;Min_cycle;Max_cycle;Signal;HPM_P1;HPM_P2
2023/10/23 00:00:46;;;;;;;1.98;0.85;;;9.00;99.90;;;;;;4954356;29;20461;-87
2023/10/23 00:03:12;;;;;;;1.83;0.98;;;9.00;99.90;;;;;;4938443;29;20118;-93
2023/10/23 00:05:38;;;;;;;2.97;1.02;;;9.00;99.90;;;;;;4921790;29;20035;-93
2023/10/23 00:08:03;;;;;;;2.03;0.90;;;8.90;99.90;;;;;;4950442;29;20349;-91
2023/10/23 00:10:29;;;;;;;2.25;1.10;;;8.90;99.90;;;;;;4949502;28;20042;-91
2023/10/23 00:12:55;;;;;;;2.35;1.08;;;8.80;99.90;;;;;;4947249;29;20034;-91
2023/10/23 00:15:21;;;;;;;1.63;0.85;;;8.80;99.90;;;;;;4933484;29;20048;-92
2023/10/23 00:17:46;;;;;;;2.53;1.08;;;8.70;99.90;;;;;;4936888;29;20031;-88
2023/10/23 00:20:12;;;;;;;2.03;1.00;;;8.80;99.90;;;;;;4937164;29;20034;-91
2023/10/23 00:22:38;;;;;;;2.00;1.17;;;8.70;99.90;;;;;;4936538;29;20121;-90
2023/10/23 00:25:04;;;;;;;2.38;1.00;;;8.70;99.90;;;;;;4937166;29;20036;-91
2023/10/23 00:27:29;;;;;;;4.40;0.90;;;8.70;99.90;;;;;;4950130;29;20085;-90
2023/10/23 00:29:55;;;;;;;2.45;1.35;;;8.70;99.90;;;;;;4936734;29;20487;-91
2023/10/23 00:32:23;;;;;;;2.90;1.35;;;8.70;99.90;;;;;;4953050;29;20023;-91
2023/10/23 00:34:49;;;;;;;2.35;1.10;;;8.70;99.90;;;;;;4935522;29;20042;-89
2023/10/23 00:37:15;;;;;;;2.00;1.20;;;8.70;99.90;;;;;;4951804;28;20031;-91
2023/10/23 00:39:40;;;;;;;2.90;1.40;;;8.60;99.90;;;;;;4920932;29;20031;-91
2023/10/23 00:42:06;;;;;;;2.00;1.00;;;8.60;99.90;;;;;;4949693;29;20424;-91
2023/10/23 00:44:32;;;;;;;2.20;1.30;;;8.60;99.90;;;;;;4946667;28;20031;-92
2023/10/23 00:46:58;;;;;;;2.22;1.20;;;8.50;99.90;;;;;;4949421;29;20380;-91
2023/10/23 00:49:25;;;;;;;2.17;1.02;;;8.40;99.90;;;;;;4949856;29;20034;-91
2023/10/23 00:51:51;;;;;;;2.15;1.13;;;8.40;99.90;;;;;;4949990;29;20035;-92
2023/10/23 00:54:19;;;;;;;2.00;1.13;;;8.40;99.90;;;;;;4934639;29;20035;-91
2023/10/23 00:56:46;;;;;;;1.50;0.80;;;8.40;99.90;;;;;;4948785;29;20101;-92
2023/10/23 00:59:12;;;;;;;2.13;0.90;;;8.30;99.90;;;;;;4934437;29;20054;-92
2023/10/23 01:01:38;;;;;;;2.90;0.98;;;8.20;99.90;;;;;;4952350;29;20036;-92
2023/10/23 01:04:05;;;;;;;2.05;0.77;;;8.20;99.90;;;;;;4936560;29;20027;-92
2023/10/23 01:06:31;;;;;;;2.22;0.90;;;8.20;99.90;;;;;;4936763;29;20027;-91
2023/10/23 01:08:57;;;;;;;2.22;1.00;;;8.10;99.90;;;;;;4947705;29;20034;-93
2023/10/23 01:11:23;;;;;;;2.10;1.00;;;8.10;99.90;;;;;;4935589;29;20023;-93
2023/10/23 01:13:49;;;;;;;2.35;0.82;;;8.00;99.90;;;;;;4949395;29;20035;-89
2023/10/23 01:16:15;;;;;;;2.00;1.08;;;8.00;99.90;;;;;;4952511;29;20329;-92
2023/10/23 01:18:41;;;;;;;2.65;1.42;;;8.00;99.90;;;;;;4936095;29;20027;-87
2023/10/23 01:21:06;;;;;;;2.15;1.13;;;8.10;99.90;;;;;;4948132;29;20031;-92
2023/10/23 01:23:35;;;;;;;3.55;1.45;;;8.10;99.90;;;;;;4949258;29;20108;-93
2023/10/23 01:26:01;;;;;;;3.40;1.92;;;8.10;99.90;;;;;;4949463;29;20035;-92
2023/10/23 01:28:27;;;;;;;2.88;1.40;;;8.00;99.90;;;;;;4950209;29;20460;-92
2023/10/23 01:30:52;;;;;;;2.20;1.08;;;7.90;99.90;;;;;;4952328;29;20066;-91
2023/10/23 01:33:18;;;;;;;2.72;1.65;;;7.90;99.90;;;;;;4947982;29;20503;-92
2023/10/23 01:35:44;;;;;;;2.55;1.20;;;7.80;99.90;;;;;;4933296;29;20484;-90
2023/10/23 01:38:12;;;;;;;5.90;1.60;;;7.90;99.90;;;;;;4933882;29;20266;-92
2023/10/23 01:40:38;;;;;;;3.22;1.45;;;7.90;99.90;;;;;;4932520;29;20134;-89
2023/10/23 01:43:04;;;;;;;3.22;1.60;;;7.90;99.90;;;;;;4950705;29;20590;-92
2023/10/23 01:45:30;;;;;;;2.78;1.27;;;7.90;99.90;;;;;;4934083;29;20031;-91
2023/10/23 01:47:56;;;;;;;3.53;1.63;;;7.90;99.90;;;;;;4945483;29;20106;-92
2023/10/23 01:50:21;;;;;;;4.20;1.83;;;7.90;99.90;;;;;;4934803;29;20027;-92
2023/10/23 01:52:50;;;;;;;2.58;1.33;;;7.90;99.90;;;;;;4947733;29;20031;-90
2023/10/23 01:55:16;;;;;;;4.50;1.50;;;7.90;99.90;;;;;;4933456;29;20047;-92
2023/10/23 01:57:42;;;;;;;3.10;1.38;;;8.00;99.90;;;;;;4947815;29;20058;-92
2023/10/23 02:00:10;;;;;;;2.65;1.45;;;8.00;99.90;;;;;;4946663;29;20427;-92
2023/10/23 02:02:40;;;;;;;3.90;1.60;;;8.00;99.90;;;;;;4950768;29;20027;-90
2023/10/23 02:05:06;;;;;;;2.90;1.65;;;8.10;99.90;;;;;;4951897;29;20035;-92
2023/10/23 02:07:31;;;;;;;3.78;1.40;;;8.30;99.90;;;;;;4934964;29;20058;-92
2023/10/23 02:09:57;;;;;;;2.85;1.20;;;8.30;99.90;;;;;;4948898;29;20076;-92
2023/10/23 02:12:24;;;;;;;3.25;1.08;;;8.40;99.90;;;;;;4919849;29;20536;-91
2023/10/23 02:14:53;;;;;;;2.20;0.95;;;8.40;99.90;;;;;;4952963;29;20400;-93
2023/10/23 02:17:19;;;;;;;2.60;1.20;;;8.40;99.90;;;;;;4947471;29;20023;-93
2023/10/23 02:19:46;;;;;;;2.70;0.80;;;8.50;99.90;;;;;;4951612;28;20032;-91
2023/10/23 02:22:11;;;;;;;3.00;1.20;;;8.50;99.90;;;;;;4932731;29;20374;-93
2023/10/23 02:24:37;;;;;;;2.40;0.88;;;8.60;99.90;;;;;;4917979;29;20050;-92
2023/10/23 02:27:03;;;;;;;2.38;0.80;;;8.60;99.90;;;;;;4949579;29;20055;-93
2023/10/23 02:29:29;;;;;;;2.00;0.90;;;8.80;99.90;;;;;;4931185;29;20468;-92
2023/10/23 02:31:55;;;;;;;1.90;0.73;;;8.80;99.90;;;;;;4929159;29;20496;-93
2023/10/23 02:34:21;;;;;;;1.83;0.80;;;9.00;99.90;;;;;;4953996;29;20043;-92
2023/10/23 02:36:47;;;;;;;1.80;1.05;;;8.90;99.90;;;;;;4954653;29;20033;-92
2023/10/23 02:39:12;;;;;;;1.35;0.70;;;8.90;99.90;;;;;;4935528;29;20134;-92
2023/10/23 02:41:38;;;;;;;1.63;0.60;;;8.90;99.90;;;;;;4935805;29;20110;-92
2023/10/23 02:44:05;;;;;;;1.25;0.68;;;8.90;99.90;;;;;;4939101;29;20024;-92
2023/10/23 02:46:34;;;;;;;1.40;0.50;;;9.00;99.90;;;;;;4938236;29;20118;-93
2023/10/23 02:49:00;;;;;;;1.48;0.60;;;9.00;99.90;;;;;;4952091;28;20107;-91
2023/10/23 02:51:26;;;;;;;1.10;0.60;;;9.00;99.90;;;;;;4921399;29;20035;-89
2023/10/23 02:53:52;;;;;;;1.58;0.60;;;9.20;99.90;;;;;;4950312;29;20051;-86
2023/10/23 02:56:17;;;;;;;1.10;0.50;;;9.10;99.90;;;;;;4937201;29;20059;-89
2023/10/23 02:58:43;;;;;;;1.27;0.60;;;9.10;99.90;;;;;;4951749;29;20035;-91
2023/10/23 03:01:20;;;;;;;1.30;0.50;;;9.10;99.90;;;;;;4937704;29;20055;-91
2023/10/23 03:03:47;;;;;;;1.52;0.50;;;9.10;99.90;;;;;;4947908;29;20066;-90
2023/10/23 03:06:13;;;;;;;1.00;0.50;;;9.10;99.90;;;;;;4954666;29;20035;-92
2023/10/23 03:08:38;;;;;;;1.77;0.60;;;9.20;99.90;;;;;;4952192;29;20134;-90
2023/10/23 03:11:05;;;;;;;1.08;0.50;;;9.30;99.90;;;;;;4953507;28;20058;-91
2023/10/23 03:13:31;;;;;;;1.00;0.40;;;9.20;99.90;;;;;;4954535;29;20032;-91
2023/10/23 03:15:57;;;;;;;1.30;0.50;;;9.20;99.90;;;;;;4949210;29;20034;-90
2023/10/23 03:18:24;;;;;;;0.98;0.47;;;9.20;99.90;;;;;;4938619;29;20050;-91
2023/10/23 03:20:49;;;;;;;1.20;0.40;;;9.30;99.90;;;;;;4954540;29;20097;-88
2023/10/23 03:23:15;;;;;;;1.17;0.50;;;9.30;99.90;;;;;;4947584;28;20047;-89
2023/10/23 03:25:44;;;;;;;1.00;0.40;;;9.40;99.90;;;;;;4946358;29;20386;-89
2023/10/23 03:28:10;;;;;;;1.30;0.50;;;9.40;99.90;;;;;;4954240;29;20134;-89
2023/10/23 03:30:37;;;;;;;1.02;0.50;;;9.40;99.90;;;;;;4954640;28;20027;-88
2023/10/23 03:33:03;;;;;;;2.30;0.50;;;9.40;99.90;;;;;;4946123;29;20024;-88
2023/10/23 03:35:29;;;;;;;1.30;0.57;;;9.40;99.90;;;;;;4953128;29;20042;-89
2023/10/23 03:37:55;;;;;;;1.50;0.60;;;9.40;99.90;;;;;;4953302;28;20027;-90
2023/10/23 03:40:21;;;;;;;1.65;0.70;;;9.40;99.90;;;;;;4954345;29;20031;-87
2023/10/23 03:42:50;;;;;;;2.13;0.70;;;9.40;99.90;;;;;;4936280;29;20051;-89
2023/10/23 03:45:16;;;;;;;1.50;0.50;;;9.50;99.90;;;;;;4952579;28;20039;-89
2023/10/23 03:47:41;;;;;;;1.70;0.82;;;9.50;99.90;;;;;;4953671;28;20102;-91
2023/10/23 03:50:07;;;;;;;3.10;1.00;;;9.50;99.90;;;;;;4933127;29;20035;-90
2023/10/23 03:52:33;;;;;;;2.33;1.10;;;9.50;99.90;;;;;;4953698;29;20027;-90
2023/10/23 03:54:59;;;;;;;2.15;0.95;;;9.50;99.90;;;;;;4950516;29;20070;-89
2023/10/23 03:57:24;;;;;;;2.53;0.90;;;9.50;99.90;;;;;;4940012;29;20043;-89
2023/10/23 03:59:50;;;;;;;2.38;1.00;;;9.60;99.90;;;;;;4951913;29;20037;-89
2023/10/23 04:02:15;;;;;;;2.45;1.02;;;9.60;99.90;;;;;;4952784;29;20027;-89
2023/10/23 04:04:41;;;;;;;2.33;0.90;;;9.60;99.90;;;;;;4946320;29;20035;-89
2023/10/23 04:07:07;;;;;;;2.55;0.90;;;9.60;99.90;;;;;;4947876;29;20046;-90
2023/10/23 04:09:32;;;;;;;2.35;1.00;;;9.60;99.90;;;;;;4917981;29;20023;-89
2023/10/23 04:11:58;;;;;;;2.30;1.00;;;9.70;99.90;;;;;;4950803;29;20038;-89
2023/10/23 04:14:24;;;;;;;2.10;1.00;;;9.60;99.90;;;;;;4931696;29;20468;-89
2023/10/23 04:16:49;;;;;;;1.85;0.80;;;9.70;99.90;;;;;;4932614;29;20027;-91
2023/10/23 04:19:15;;;;;;;1.90;0.90;;;9.70;99.90;;;;;;4918640;29;20042;-89
2023/10/23 04:21:40;;;;;;;1.70;0.70;;;9.70;99.90;;;;;;4946994;28;20043;-91
2023/10/23 04:24:09;;;;;;;2.08;0.85;;;9.70;99.90;;;;;;4951351;29;20031;-91
2023/10/23 04:26:35;;;;;;;1.83;0.80;;;9.70;99.90;;;;;;4936907;29;20855;-92
2023/10/23 04:29:00;;;;;;;1.60;0.80;;;9.70;99.90;;;;;;4952022;29;20134;-91
2023/10/23 04:31:26;;;;;;;1.95;0.80;;;9.70;99.90;;;;;;4937509;29;20031;-92
2023/10/23 04:33:52;;;;;;;1.50;0.70;;;9.70;99.90;;;;;;4953477;29;20027;-88
2023/10/23 04:36:17;;;;;;;1.75;0.80;;;9.70;99.90;;;;;;4936806;29;20035;-92
2023/10/23 04:38:43;;;;;;;1.77;0.70;;;9.70;99.90;;;;;;4933077;29;20030;-91
2023/10/23 04:41:09;;;;;;;1.48;0.60;;;9.70;99.90;;;;;;4936495;29;20054;-91
2023/10/23 04:43:35;;;;;;;1.65;0.80;;;9.70;99.90;;;;;;4950528;29;20035;-90
2023/10/23 04:46:01;;;;;;;1.13;0.57;;;9.70;99.90;;;;;;4950641;29;20038;-92
2023/10/23 04:48:27;;;;;;;1.75;0.70;;;9.70;99.90;;;;;;4939668;29;20023;-91
2023/10/23 04:50:58;;;;;;;1.48;0.70;;;9.70;99.90;;;;;;4934321;29;20476;-88
2023/10/23 04:53:24;;;;;;;3.30;0.75;;;9.70;99.90;;;;;;4946705;29;20457;-87
2023/10/23 04:55:50;;;;;;;1.60;0.70;;;9.80;99.90;;;;;;4952565;28;20055;-91
2023/10/23 04:58:15;;;;;;;2.78;0.77;;;9.70;99.90;;;;;;4949124;29;20058;-90
2023/10/23 05:00:41;;;;;;;1.50;0.60;;;9.70;99.90;;;;;;4932914;29;20031;-89
2023/10/23 05:03:08;;;;;;;2.10;0.50;;;9.70;99.90;;;;;;4951321;29;20035;-89
2023/10/23 05:05:35;;;;;;;1.33;0.55;;;9.70;99.90;;;;;;4934755;29;20705;-89
2023/10/23 05:08:03;;;;;;;1.17;0.50;;;9.60;99.90;;;;;;4936349;29;20027;-88
2023/10/23 05:10:29;;;;;;;1.25;0.50;;;9.60;99.90;;;;;;4936327;29;20031;-90
2023/10/23 05:12:56;;;;;;;1.50;0.60;;;9.60;99.90;;;;;;4920178;29;20023;-87
2023/10/23 05:15:22;;;;;;;1.20;0.60;;;9.60;99.90;;;;;;4948895;29;20039;-88
2023/10/23 05:17:48;;;;;;;1.23;0.60;;;9.50;99.90;;;;;;4936225;29;20542;-90
2023/10/23 05:20:14;;;;;;;1.50;0.50;;;9.60;99.90;;;;;;4945707;29;20126;-89
2023/10/23 05:22:40;;;;;;;1.83;0.60;;;9.60;99.90;;;;;;4935080;29;20027;-90
2023/10/23 05:25:08;;;;;;;1.52;0.70;;;9.50;99.90;;;;;;4935424;29;20538;-88
2023/10/23 05:27:37;;;;;;;1.70;0.70;;;9.50;99.90;;;;;;4932434;29;20023;-88
2023/10/23 05:30:04;;;;;;;1.35;0.68;;;9.50;99.90;;;;;;4950097;29;20078;-90
2023/10/23 05:32:33;;;;;;;1.70;0.70;;;9.50;99.90;;;;;;4934992;29;20038;-87
2023/10/23 05:34:59;;;;;;;1.60;0.70;;;9.40;99.90;;;;;;4949713;29;21086;-88
2023/10/23 05:37:24;;;;;;;1.70;0.80;;;9.40;99.90;;;;;;4935438;29;20114;-88
2023/10/23 05:39:50;;;;;;;2.20;0.80;;;9.40;99.90;;;;;;4935074;29;20039;-90
2023/10/23 05:42:16;;;;;;;1.63;0.93;;;9.40;99.90;;;;;;4933741;29;20082;-89
2023/10/23 05:44:41;;;;;;;1.42;0.70;;;9.30;99.90;;;;;;4947924;29;20506;-88
2023/10/23 05:47:07;;;;;;;2.15;0.90;;;9.30;99.90;;;;;;4949708;29;20031;-88
2023/10/23 05:49:34;;;;;;;1.40;0.70;;;9.30;99.90;;;;;;4935659;29;20063;-90
2023/10/23 05:52:00;;;;;;;1.83;1.08;;;9.30;99.90;;;;;;4946137;29;20127;-89
2023/10/23 05:54:25;;;;;;;2.17;1.20;;;9.30;99.90;;;;;;4947701;29;20094;-90
2023/10/23 05:56:51;;;;;;;2.00;0.90;;;9.30;99.90;;;;;;4947929;29;20090;-88
2023/10/23 05:59:16;;;;;;;1.35;0.60;;;9.20;99.90;;;;;;4950900;29;20031;-90
2023/10/23 06:01:42;;;;;;;1.63;0.70;;;9.20;99.90;;;;;;4951513;29;20122;-90
2023/10/23 06:04:08;;;;;;;1.50;0.70;;;9.20;99.90;;;;;;4935935;29;20019;-89
2023/10/23 06:06:33;;;;;;;1.40;0.65;;;9.10;99.90;;;;;;4945713;28;20023;-90
2023/10/23 06:08:59;;;;;;;1.42;0.60;;;9.20;99.90;;;;;;4952358;29;20561;-90
2023/10/23 06:11:25;;;;;;;1.35;0.60;;;9.20;99.90;;;;;;4933292;29;20046;-89
2023/10/23 06:13:51;;;;;;;3.38;0.60;;;9.20;99.90;;;;;;4923035;29;20059;-92
2023/10/23 06:16:16;;;;;;;1.58;0.77;;;9.10;99.90;;;;;;4931131;29;20027;-89
2023/10/23 06:18:42;;;;;;;1.58;0.60;;;9.10;99.90;;;;;;4958825;28;20066;-90
2023/10/23 06:21:08;;;;;;;1.20;0.50;;;9.10;99.90;;;;;;4952490;28;20078;-89
2023/10/23 06:23:36;;;;;;;1.30;0.60;;;9.10;99.90;;;;;;4948897;29;20396;-89
2023/10/23 06:26:03;;;;;;;1.10;0.50;;;9.10;99.90;;;;;;4952480;29;20456;-90
2023/10/23 06:28:29;;;;;;;3.22;0.50;;;9.10;99.90;;;;;;4952261;28;20417;-91
2023/10/23 06:30:55;;;;;;;1.48;0.60;;;9.10;99.90;;;;;;4922691;29;20042;-90
2023/10/23 06:33:20;;;;;;;1.83;0.50;;;9.10;99.90;;;;;;4949374;29;20261;-89
2023/10/23 06:35:55;;;;;;;1.10;0.40;;;9.10;99.90;;;;;;4950383;29;20043;-88
2023/10/23 06:38:21;;;;;;;1.40;0.60;;;9.10;99.90;;;;;;4950130;29;20031;-90
2023/10/23 06:40:46;;;;;;;1.35;0.60;;;9.10;99.90;;;;;;4929336;29;20393;-90
2023/10/23 06:43:12;;;;;;;1.35;0.60;;;9.10;99.90;;;;;;4932845;29;20064;-89
2023/10/23 06:45:37;;;;;;;1.10;0.50;;;9.10;99.90;;;;;;4944277;29;20429;-90
2023/10/23 06:48:03;;;;;;;0.90;0.40;;;9.10;99.90;;;;;;4933884;29;20485;-89
2023/10/23 06:50:29;;;;;;;1.10;0.50;;;9.10;99.90;;;;;;4934877;29;20027;-89
2023/10/23 06:52:54;;;;;;;1.35;0.60;;;9.10;99.90;;;;;;4945932;29;20193;-88
2023/10/23 06:55:20;;;;;;;1.23;0.60;;;9.10;99.90;;;;;;4949563;29;20043;-89
2023/10/23 06:57:46;;;;;;;1.27;0.60;;;9.20;99.90;;;;;;4948203;29;20054;-89
2023/10/23 07:00:12;;;;;;;1.60;0.60;;;9.20;99.90;;;;;;4950217;29;20100;-88
2023/10/23 07:02:37;;;;;;;1.63;0.80;;;9.20;99.90;;;;;;4958743;28;20090;-89
2023/10/23 07:05:04;;;;;;;1.75;0.80;;;9.20;99.90;;;;;;4933883;29;20067;-88
2023/10/23 07:07:30;;;;;;;1.80;0.80;;;9.20;99.90;;;;;;4948695;29;20032;-90
2023/10/23 07:09:58;;;;;;;1.45;0.73;;;9.30;99.90;;;;;;4949646;28;20031;-89
2023/10/23 07:12:25;;;;;;;3.65;0.90;;;9.30;99.90;;;;;;4947543;29;20027;-89
2023/10/23 07:14:50;;;;;;;1.20;0.57;;;9.30;99.90;;;;;;4947951;29;20043;-90
2023/10/23 07:17:16;;;;;;;1.50;0.70;;;9.30;99.90;;;;;;4930780;29;20107;-90
2023/10/23 07:19:42;;;;;;;1.90;0.80;;;9.40;99.90;;;;;;4944035;28;20490;-90
2023/10/23 07:22:11;;;;;;;1.60;0.77;;;9.40;99.90;;;;;;4933758;28;20047;-89
2023/10/23 07:25:02;;;;;;;2.17;0.80;;;9.50;99.90;;;;;;4933183;29;20032;-88
2023/10/23 07:27:43;;;;;;;1.65;0.60;;;9.50;99.90;;;;;;4947302;28;20332;-88
2023/10/23 07:30:11;;;;;;;3.47;1.02;;;9.50;99.90;;;;;;4944782;28;20039;-89
2023/10/23 07:32:36;;;;;;;2.72;1.00;;;9.50;99.90;;;;;;4920088;29;20042;-90
2023/10/23 07:35:11;;;;;;;1.50;0.70;;;9.50;99.90;;;;;;4936950;28;20149;-90
2023/10/23 07:37:38;;;;;;;1.80;0.70;;;9.60;99.90;;;;;;4951626;28;20143;-90
2023/10/23 07:40:04;;;;;;;2.00;1.20;;;9.60;99.90;;;;;;4933261;29;20027;-90
2023/10/23 07:42:32;;;;;;;1.35;0.70;;;9.60;99.90;;;;;;4951289;28;20066;-91
2023/10/23 07:45:03;;;;;;;2.35;0.93;;;9.70;99.90;;;;;;4946274;28;20037;-91
2023/10/23 07:47:35;;;;;;;1.63;0.68;;;9.60;99.90;;;;;;4946024;29;20031;-90
2023/10/23 07:50:24;;;;;;;2.05;0.60;;;9.60;99.90;;;;;;4954779;28;20038;-89
2023/10/23 07:52:52;;;;;;;1.00;0.50;;;9.60;99.90;;;;;;4931714;29;20536;-86
2023/10/23 07:55:27;;;;;;;1.10;0.50;;;9.70;99.90;;;;;;4940527;28;20567;-91
2023/10/23 07:57:56;;;;;;;2.90;0.77;;;9.60;99.90;;;;;;4933879;29;20053;-88
2023/10/23 08:00:22;;;;;;;3.22;0.65;;;9.60;99.90;;;;;;4949184;28;20031;-89
2023/10/23 08:02:47;;;;;;;1.67;0.65;;;9.60;99.90;;;;;;4947755;28;20023;-87
2023/10/23 08:08:43;;;;;;;1.95;0.80;;;9.70;99.90;;;;;;4948158;28;20039;-90
2023/10/23 08:11:15;;;;;;;1.92;0.80;;;9.80;99.90;;;;;;4947065;28;20105;-91
2023/10/23 08:14:00;;;;;;;2.85;0.80;;;9.80;99.90;;;;;;4933325;28;20286;-89
2023/10/23 08:16:26;;;;;;;2.42;1.25;;;9.80;99.90;;;;;;4944393;28;21925;-90
2023/10/23 08:18:52;;;;;;;4.05;1.55;;;9.80;99.90;;;;;;4947181;28;20039;-90
2023/10/23 08:21:17;;;;;;;4.28;1.40;;;10.00;99.90;;;;;;4924414;28;20089;-90
2023/10/23 08:23:46;;;;;;;3.30;1.40;;;10.00;99.90;;;;;;4929605;28;20031;-91
2023/10/23 08:26:12;;;;;;;2.03;1.25;;;10.00;99.90;;;;;;4947698;28;20027;-90
2023/10/23 08:28:37;;;;;;;3.78;1.75;;;10.10;99.90;;;;;;4946376;28;20026;-90
2023/10/23 08:31:03;;;;;;;2.20;1.42;;;10.10;99.90;;;;;;4942583;28;20114;-87
2023/10/23 08:33:29;;;;;;;3.95;1.75;;;10.20;99.90;;;;;;4944674;28;20028;-91
2023/10/23 08:35:54;;;;;;;4.28;2.17;;;10.10;99.90;;;;;;4945942;28;20065;-90
2023/10/23 08:38:20;;;;;;;3.42;1.85;;;10.20;99.90;;;;;;4934858;28;20178;-90
2023/10/23 08:40:47;;;;;;;4.32;2.28;;;10.30;99.90;;;;;;4943413;28;20043;-90
2023/10/23 08:43:13;;;;;;;3.97;2.00;;;10.40;99.90;;;;;;4944002;28;20028;-89
2023/10/23 08:45:41;;;;;;;2.95;1.35;;;10.50;99.90;;;;;;4948582;28;20243;-85
2023/10/23 08:48:07;;;;;;;3.58;1.20;;;10.60;99.90;;;;;;4948496;28;20031;-87
2023/10/23 08:50:34;;;;;;;2.38;1.08;;;10.60;99.90;;;;;;4945906;28;20101;-92
2023/10/23 08:53:07;;;;;;;2.78;1.25;;;10.60;99.90;;;;;;4947505;28;20023;-87
2023/10/23 08:55:33;;;;;;;2.78;1.20;;;10.70;99.90;;;;;;4947374;28;20055;-89
2023/10/23 08:58:03;;;;;;;2.45;0.85;;;10.80;99.90;;;;;;4945312;28;20481;-90
2023/10/23 09:00:29;;;;;;;;;;;10.80;99.90;;;;;;4948723;28;20408;-93
2023/10/23 09:02:58;;;;;;;2.78;0.88;;;11.00;99.90;;;;;;4937569;28;19915;-89
2023/10/23 09:05:24;;;;;;;1.95;0.70;;;11.20;99.90;;;;;;4946466;28;20491;-93
2023/10/23 09:07:50;;;;;;;2.92;1.10;;;11.20;99.90;;;;;;4926632;28;20039;-87
2023/10/23 09:10:16;;;;;;;1.90;0.70;;;11.30;99.90;;;;;;4929705;28;20034;-92
2023/10/23 09:12:41;;;;;;;1.70;0.70;;;11.40;99.90;;;;;;4950292;28;20086;-88
2023/10/23 09:15:17;;;;;;;2.22;0.70;;;11.40;99.90;;;;;;4944234;28;20439;-90
2023/10/23 09:17:44;;;;;;;4.15;0.82;;;11.30;99.90;;;;;;4933331;28;20043;-89
2023/10/23 09:20:16;;;;;;;2.55;0.70;;;11.30;99.90;;;;;;4948047;28;20114;-88
2023/10/23 09:22:46;;;;;;;2.67;0.70;;;11.40;99.90;;;;;;4946336;28;20058;-90
2023/10/23 09:25:14;;;;;;;1.13;0.57;;;11.60;99.90;;;;;;4923570;28;20062;-86
2023/10/23 09:27:40;;;;;;;1.50;0.60;;;11.80;99.90;;;;;;4947827;28;20114;-89
2023/10/23 09:30:08;;;;;;;2.67;0.70;;;11.90;99.90;;;;;;4934056;28;20118;-85
2023/10/23 09:32:35;;;;;;;2.97;0.65;;;11.90;99.90;;;;;;4945104;28;20035;-86
2023/10/23 09:35:01;;;;;;;1.55;0.52;;;12.00;99.90;;;;;;4930585;28;20034;-85
2023/10/23 09:37:27;;;;;;;1.33;0.50;;;12.10;99.90;;;;;;4945123;28;20416;-85
2023/10/23 09:39:52;;;;;;;1.55;0.57;;;12.10;99.90;;;;;;4947526;28;20027;-87
2023/10/23 09:42:18;;;;;;;2.03;0.95;;;12.10;99.90;;;;;;4946719;28;20023;-85
2023/10/23 09:44:45;;;;;;;2.78;0.82;;;12.10;99.90;;;;;;4942964;28;20035;-89
2023/10/23 09:47:16;;;;;;;2.40;0.80;;;12.10;99.90;;;;;;4943781;28;20535;-86
2023/10/23 09:49:42;;;;;;;2.70;1.17;;;12.20;99.90;;;;;;4946049;28;20062;-86
2023/10/23 09:52:09;;;;;;;2.78;0.98;;;12.40;99.90;;;;;;4946458;28;20023;-85
2023/10/23 09:54:38;;;;;;;2.40;0.98;;;12.40;99.90;;;;;;4946201;28;20035;-86
2023/10/23 09:57:07;;;;;;;2.97;1.13;;;12.50;99.90;;;;;;4945439;28;20047;-84
2023/10/23 09:59:52;;;;;;;2.35;1.42;;;12.40;99.90;;;;;;4944504;28;20071;-85
2023/10/23 10:02:20;;;;;;;3.42;1.70;;;12.50;99.90;;;;;;4945536;28;20032;-88
2023/10/23 10:04:59;;;;;;;3.15;1.75;;;12.50;99.90;;;;;;4928490;28;20038;-86
2023/10/23 10:07:35;;;;;;;2.80;1.90;;;12.60;99.90;;;;;;4929101;28;20054;-86
2023/10/23 10:10:04;;;;;;;5.53;2.67;;;12.70;99.90;;;;;;4946652;28;20535;-88
2023/10/23 10:12:34;;;;;;;5.93;4.28;;;12.80;99.90;;;;;;4945469;28;20123;-86
2023/10/23 10:15:00;;;;;;;;;;;12.80;99.90;;;;;;4946448;28;20089;-85
2023/10/23 10:17:27;;;;;;;7.10;4.88;;;12.70;99.90;;;;;;4907108;28;19925;-87
2023/10/23 10:20:52;;;;;;;7.97;6.37;;;12.70;99.90;;;;;;4944194;28;20066;-89
2023/10/23 10:23:35;;;;;;;11.52;9.15;;;12.80;99.90;;;;;;4930408;28;20035;-86
2023/10/23 10:26:23;;;;;;;9.77;7.25;;;12.90;99.90;;;;;;4908540;28;20733;-88
2023/10/23 10:28:53;;;;;;;11.10;8.32;;;13.00;99.90;;;;;;4942944;28;20031;-90
2023/10/23 10:31:21;;;;;;;;;;;13.00;99.90;;;;;;4931357;28;20031;-88
2023/10/23 10:34:11;;;;;;;;;;;;;;;;;;;;;
2023/10/23 10:36:48;;;;;;;7.68;6.10;;;13.20;99.90;;;;;;4946706;28;20042;-85
2023/10/23 10:39:17;;;;;;;8.90;7.22;;;13.50;99.90;;;;;;4944213;28;20031;-88
2023/10/23 10:41:43;;;;;;;10.60;7.22;;;13.30;99.90;;;;;;4929018;28;20023;-87
2023/10/23 10:44:22;;;;;;;;;;;;;;;;;;;;;
2023/10/23 10:46:59;;;;;;;8.45;7.07;;;13.30;99.90;;;;;;4945088;28;20028;-89
2023/10/23 10:49:59;;;;;;;8.18;6.40;;;13.40;99.90;;;;;;4945201;28;20058;-87
2023/10/23 10:52:52;;;;;;;7.18;5.93;;;13.40;99.90;;;;;;4935050;28;20035;-87
2023/10/23 10:55:25;;;;;;;5.82;4.13;;;13.60;99.90;;;;;;4945038;28;20110;-88
2023/10/23 10:57:53;;;;;;;6.10;3.75;;;13.70;99.90;;;;;;4935106;28;20468;-89
2023/10/23 11:00:19;;;;;;;6.78;3.42;;;13.70;99.90;;;;;;4946757;28;20035;-87
2023/10/23 11:03:14;;;;;;;5.90;2.70;;;13.70;99.90;;;;;;4947258;28;20034;-88
2023/10/23 11:05:49;;;;;;;4.90;2.47;;;13.70;99.90;;;;;;4947198;28;20031;-90
2023/10/23 11:08:15;;;;;;;3.03;1.10;;;13.80;99.90;;;;;;4927461;28;20094;-87
2023/10/23 11:10:41;;;;;;;2.72;0.80;;;13.80;99.90;;;;;;4929165;28;20042;-89
2023/10/23 11:13:54;;;;;;;4.22;0.90;;;13.90;99.90;;;;;;4946787;28;20051;-87
2023/10/23 11:16:24;;;;;;;3.33;1.00;;;13.90;99.90;;;;;;4926444;28;20514;-89
2023/10/23 11:18:51;;;;;;;4.13;0.90;;;13.90;99.90;;;;;;4948171;28;20122;-87
2023/10/23 11:21:22;;;;;;;3.70;0.70;;;14.00;99.90;;;;;;4948101;28;20927;-87
2023/10/23 11:23:47;;;;;;;2.97;0.70;;;14.00;99.90;;;;;;4913688;28;20051;-88
2023/10/23 11:26:13;;;;;;;2.30;0.60;;;14.00;99.90;;;;;;4927549;28;20027;-87
2023/10/23 11:28:38;;;;;;;1.75;0.50;;;14.00;99.90;;;;;;4938395;28;20043;-89
2023/10/23 11:31:04;;;;;;;3.05;0.90;;;14.10;99.90;;;;;;4947446;28;20039;-85
2023/10/23 11:33:30;;;;;;;2.53;0.40;;;14.20;99.90;;;;;;4948868;28;20035;-87
2023/10/23 11:35:55;;;;;;;3.70;0.50;;;14.20;99.90;;;;;;4947030;28;20142;-86
2023/10/23 11:38:25;;;;;;;3.45;0.60;;;14.20;99.90;;;;;;4933036;28;20055;-86
2023/10/23 11:40:53;;;;;;;;;;;14.10;99.90;;;;;;4947313;28;20039;-85
2023/10/23 11:43:50;;;;;;;2.03;0.50;;;14.20;99.90;;;;;;4930309;28;20650;-87
2023/10/23 11:46:31;;;;;;;3.03;0.50;;;14.20;99.90;;;;;;4946474;28;20103;-86
2023/10/23 11:49:05;;;;;;;2.80;0.80;;;14.20;99.90;;;;;;4948657;28;20059;-86
2023/10/23 11:51:31;;;;;;;1.38;0.40;;;14.30;99.90;;;;;;4946931;28;21274;-85
2023/10/23 11:53:56;;;;;;;2.25;0.40;;;14.40;99.90;;;;;;4944114;28;20027;-85
2023/10/23 11:56:26;;;;;;;2.80;0.50;;;14.30;99.90;;;;;;4944823;28;20042;-88
2023/10/23 11:59:12;;;;;;;2.28;0.57;;;14.30;99.90;;;;;;4946802;28;20400;-88
2023/10/23 12:01:56;;;;;;;2.67;0.50;;;14.30;99.90;;;;;;4930789;28;20049;-88
2023/10/23 12:04:22;;;;;;;3.78;0.70;;;14.30;99.90;;;;;;4932438;28;20027;-88
2023/10/23 12:06:59;;;;;;;3.25;0.50;;;14.30;99.90;;;;;;4944912;28;20031;-90
2023/10/23 12:09:47;;;;;;;;;;;;;;;;;;;;;
2023/10/23 12:12:21;;;;;;;4.82;0.60;;;14.40;99.90;;;;;;4936023;28;20035;-87
2023/10/23 12:14:49;;;;;;;3.72;0.73;;;14.40;99.90;;;;;;4947149;28;20050;-89
2023/10/23 12:17:30;;;;;;;2.85;0.60;;;14.50;99.90;;;;;;4948052;28;20034;-88
2023/10/23 12:19:58;;;;;;;3.47;0.50;;;14.50;99.90;;;;;;4947808;28;20027;-91
2023/10/23 12:22:47;;;;;;;4.43;0.70;;;14.50;99.90;;;;;;4930509;28;20031;-87
2023/10/23 12:26:18;;;;;;;5.40;0.60;;;14.60;99.90;;;;;;4925544;28;20029;-90
2023/10/23 12:29:15;;;;;;;2.75;0.50;;;14.50;99.90;;;;;;4911905;28;20039;-90
2023/10/23 12:31:48;;;;;;;3.90;0.55;;;14.50;99.90;;;;;;4946231;28;20059;-88
2023/10/23 12:34:24;;;;;;;5.75;0.52;;;14.50;99.90;;;;;;4943848;28;20315;-86
2023/10/23 12:37:07;;;;;;;3.30;0.70;;;14.60;99.90;;;;;;4943592;28;20026;-92
2023/10/23 12:44:00;;;;;;;;;;;;;;;;;;;;;
2023/10/23 12:47:22;;;;;;;;;;;14.70;99.90;;;;;;4946589;28;20117;-91
2023/10/23 12:50:50;;;;;;;2.08;0.40;;;14.70;99.90;;;;;;4923526;28;19917;-90
2023/10/23 12:53:24;;;;;;;2.78;0.30;;;14.60;99.90;;;;;;4931706;28;20084;-90
2023/10/23 12:57:21;;;;;;;;;;;;;;;;;;;;;
2023/10/23 12:59:36;;;;;;;3.35;0.70;;;14.50;99.90;;;;;;4912222;29;20055;-86
2023/10/23 13:06:28;;;;;;;2.33;0.60;;;14.60;99.90;;;;;;4912659;29;20496;-91
2023/10/23 13:09:02;;;;;;;3.35;0.60;;;14.60;99.90;;;;;;4831165;29;20065;-89
2023/10/23 13:27:39;;;;;;;;;;;;;;;;;;;;;
2023/10/23 13:30:28;;;;;;;6.68;1.10;;;14.50;99.90;;;;;;4663199;30;20132;-91
2023/10/23 13:33:14;;;;;;;5.35;1.10;;;14.60;99.90;;;;;;4672308;30;20080;-86
2023/10/23 13:36:21;;;;;;;4.78;0.93;;;14.50;99.90;;;;;;4664397;30;20489;-89
2023/10/23 13:39:38;;;;;;;1.77;0.60;;;14.50;99.90;;;;;;4633847;30;20499;-92
2023/10/23 13:46:25;;;;;;;;;;;;;;;;;;;;;
2023/10/23 13:49:16;;;;;;;3.08;0.65;;;14.60;99.90;;;;;;5071938;28;20044;-90